PWSweather.com
Personal Weather Stations
Station Observations
KMAMEDFI2
Medfield, MA 02052

Medfield, MA 02052

Lat: 42.1900822, Lon: -71.3296889

Elevation: 138

Station Type: Rainwise WS MK-III

http://www.medfieldweather.com

High Low Average
Temperature 36.2°F2.3°C 14.3°F-9.8°C 27.0°F-2.8°C
Dew Point 28.2°F-2.1°C 12.6°F-10.8°C 20.0°F-6.7°C
Winds 9.2 mph 14.8 kmh Calm Calm 3.0 mph WSW4.8 kmh WSW
Wind Gusts 21.9 mph35.2 kmh -- 4.0 mph6.4 kmh
Humidity 94% 55% 76%
Pressure 30.09 in1019.0 mb 29.90 in1012.5 mb -
Precipitation 0.00 in0.0 mm - -
Hour Temp Dew Point Humidity Winds Wind Gusts Pressure Precip Precip Rate Daily Precip Total
12:00 AM 16.7°F-8.5°C 15.0°F-9.4°C 93% Calm Calm -- 30.03 in1016.9 mb - 0.00 in0.0 mm 0.00 in0.0 mm
12:10 AM 17.2°F-8.2°C 15.5°F-9.2°C 93% Calm Calm -- 30.03 in1016.9 mb - 0.00 in0.0 mm 0.00 in0.0 mm
12:20 AM 17.0°F-8.3°C 15.4°F-9.2°C 93% Calm Calm -- 30.02 in1016.6 mb - 0.00 in0.0 mm 0.00 in0.0 mm
12:30 AM 16.9°F-8.4°C 15.3°F-9.3°C 93% Calm Calm -- 30.02 in1016.6 mb - 0.00 in0.0 mm 0.00 in0.0 mm
12:40 AM 16.9°F-8.4°C 15.3°F-9.3°C 93% Calm Calm -- 30.01 in1016.3 mb - 0.00 in0.0 mm 0.00 in0.0 mm
12:50 AM 16.5°F-8.6°C 14.8°F-9.6°C 93% Calm Calm -- 30.01 in1016.3 mb - 0.00 in0.0 mm 0.00 in0.0 mm
01:00 AM 16.8°F-8.4°C 15.1°F-9.4°C 93% Calm Calm -- 30.00 in1015.9 mb - 0.00 in0.0 mm 0.00 in0.0 mm
01:10 AM 16.9°F-8.4°C 15.2°F-9.3°C 93% Calm Calm -- 30.00 in1015.9 mb - 0.00 in0.0 mm 0.00 in0.0 mm
01:20 AM 16.7°F-8.5°C 15.0°F-9.4°C 93% Calm Calm -- 29.99 in1015.6 mb - 0.00 in0.0 mm 0.00 in0.0 mm
01:30 AM 16.5°F-8.6°C 14.8°F-9.6°C 93% Calm Calm -- 29.99 in1015.6 mb - 0.00 in0.0 mm 0.00 in0.0 mm
01:40 AM 15.8°F-9.0°C 14.1°F-9.9°C 93% Calm Calm -- 30.00 in1015.9 mb - 0.00 in0.0 mm 0.00 in0.0 mm
01:50 AM 15.1°F-9.4°C 13.5°F-10.3°C 93% Calm Calm -- 30.00 in1015.9 mb - 0.00 in0.0 mm 0.00 in0.0 mm
02:00 AM 15.2°F-9.3°C 13.5°F-10.3°C 93% Calm Calm -- 29.99 in1015.6 mb - 0.00 in0.0 mm 0.00 in0.0 mm
02:10 AM 15.5°F-9.2°C 13.8°F-10.1°C 93% Calm Calm -- 29.98 in1015.2 mb - 0.00 in0.0 mm 0.00 in0.0 mm
02:20 AM 15.3°F-9.3°C 13.6°F-10.2°C 93% Calm Calm -- 29.98 in1015.2 mb - 0.00 in0.0 mm 0.00 in0.0 mm
02:30 AM 15.5°F-9.2°C 13.8°F-10.1°C 93% Calm Calm -- 29.98 in1015.2 mb - 0.00 in0.0 mm 0.00 in0.0 mm
02:40 AM 15.4°F-9.2°C 13.7°F-10.2°C 93% Calm Calm -- 29.98 in1015.2 mb - 0.00 in0.0 mm 0.00 in0.0 mm
02:50 AM 15.1°F-9.4°C 13.4°F-10.3°C 93% Calm Calm -- 29.98 in1015.2 mb - 0.00 in0.0 mm 0.00 in0.0 mm
03:00 AM 15.2°F-9.3°C 13.5°F-10.3°C 93% Calm Calm -- 29.97 in1014.9 mb - 0.00 in0.0 mm 0.00 in0.0 mm
03:10 AM 14.9°F-9.5°C 13.2°F-10.4°C 93% Calm Calm -- 29.97 in1014.9 mb - 0.00 in0.0 mm 0.00 in0.0 mm
03:20 AM 14.9°F-9.5°C 13.2°F-10.4°C 93% Calm Calm -- 29.97 in1014.9 mb - 0.00 in0.0 mm 0.00 in0.0 mm
03:30 AM 14.8°F-9.6°C 13.1°F-10.5°C 93% Calm Calm -- 29.97 in1014.9 mb - 0.00 in0.0 mm 0.00 in0.0 mm
03:40 AM 14.6°F-9.7°C 12.9°F-10.6°C 93% Calm Calm -- 29.97 in1014.9 mb - 0.00 in0.0 mm 0.00 in0.0 mm
03:50 AM 14.5°F-9.7°C 12.8°F-10.7°C 93% Calm Calm -- 29.97 in1014.9 mb - 0.00 in0.0 mm 0.00 in0.0 mm
04:00 AM 14.8°F-9.6°C 13.1°F-10.5°C 93% Calm Calm -- 29.96 in1014.6 mb - 0.00 in0.0 mm 0.00 in0.0 mm
04:10 AM 14.7°F-9.6°C 13.1°F-10.5°C 93% Calm Calm -- 29.96 in1014.6 mb - 0.00 in0.0 mm 0.00 in0.0 mm
04:20 AM 14.6°F-9.7°C 12.9°F-10.6°C 93% Calm Calm -- 29.96 in1014.6 mb - 0.00 in0.0 mm 0.00 in0.0 mm
04:30 AM 14.5°F-9.7°C 12.9°F-10.6°C 93% Calm Calm -- 29.95 in1014.2 mb - 0.00 in0.0 mm 0.00 in0.0 mm
04:40 AM 14.6°F-9.7°C 12.9°F-10.6°C 93% Calm Calm -- 29.95 in1014.2 mb - 0.00 in0.0 mm 0.00 in0.0 mm
04:50 AM 14.8°F-9.6°C 13.1°F-10.5°C 93% Calm Calm -- 29.95 in1014.2 mb - 0.00 in0.0 mm 0.00 in0.0 mm
05:00 AM 14.9°F-9.5°C 13.2°F-10.4°C 93% Calm Calm -- 29.95 in1014.2 mb - 0.00 in0.0 mm 0.00 in0.0 mm
05:10 AM 14.5°F-9.7°C 12.8°F-10.7°C 93% Calm Calm -- 29.95 in1014.2 mb - 0.00 in0.0 mm 0.00 in0.0 mm
05:20 AM 14.8°F-9.6°C 13.1°F-10.5°C 93% Calm Calm -- 29.95 in1014.2 mb - 0.00 in0.0 mm 0.00 in0.0 mm
05:30 AM 14.8°F-9.6°C 13.1°F-10.5°C 93% Calm Calm -- 29.95 in1014.2 mb - 0.00 in0.0 mm 0.00 in0.0 mm
05:40 AM 14.5°F-9.7°C 12.8°F-10.7°C 93% Calm Calm -- 29.94 in1013.9 mb - 0.00 in0.0 mm 0.00 in0.0 mm
05:50 AM 14.4°F-9.8°C 12.7°F-10.7°C 93% Calm Calm -- 29.94 in1013.9 mb - 0.00 in0.0 mm 0.00 in0.0 mm
06:00 AM 14.3°F-9.8°C 12.6°F-10.8°C 93% Calm Calm -- 29.93 in1013.5 mb - 0.00 in0.0 mm 0.00 in0.0 mm
06:10 AM 14.4°F-9.8°C 12.7°F-10.7°C 93% Calm Calm -- 29.93 in1013.5 mb - 0.00 in0.0 mm 0.00 in0.0 mm
06:20 AM 14.7°F-9.6°C 13.0°F-10.6°C 93% Calm Calm -- 29.93 in1013.5 mb - 0.00 in0.0 mm 0.00 in0.0 mm
06:30 AM 14.5°F-9.7°C 12.8°F-10.7°C 93% Calm Calm -- 29.93 in1013.5 mb - 0.00 in0.0 mm 0.00 in0.0 mm
06:40 AM 14.3°F-9.8°C 12.6°F-10.8°C 93% Calm Calm -- 29.93 in1013.5 mb - 0.00 in0.0 mm 0.00 in0.0 mm
06:50 AM 14.5°F-9.7°C 12.8°F-10.7°C 93% Calm Calm -- 29.93 in1013.5 mb - 0.00 in0.0 mm 0.00 in0.0 mm
07:00 AM 15.2°F-9.3°C 13.5°F-10.3°C 93% Calm Calm -- 29.93 in1013.5 mb - 0.00 in0.0 mm 0.00 in0.0 mm
07:10 AM 15.4°F-9.2°C 13.7°F-10.2°C 93% Calm Calm -- 29.93 in1013.5 mb - 0.00 in0.0 mm 0.00 in0.0 mm
07:20 AM 15.2°F-9.3°C 13.5°F-10.3°C 93% Calm Calm -- 29.94 in1013.9 mb - 0.00 in0.0 mm 0.00 in0.0 mm
07:30 AM 15.3°F-9.3°C 13.6°F-10.2°C 93% Calm Calm -- 29.94 in1013.9 mb - 0.00 in0.0 mm 0.00 in0.0 mm
07:40 AM 15.9°F-8.9°C 14.2°F-9.9°C 93% Calm Calm -- 29.94 in1013.9 mb - 0.00 in0.0 mm 0.00 in0.0 mm
07:50 AM 15.6°F-9.1°C 13.9°F-10.1°C 93% Calm Calm -- 29.94 in1013.9 mb - 0.00 in0.0 mm 0.00 in0.0 mm
08:00 AM 15.2°F-9.3°C 13.6°F-10.2°C 93% Calm Calm -- 29.94 in1013.9 mb - 0.00 in0.0 mm 0.00 in0.0 mm
08:10 AM 14.8°F-9.6°C 13.1°F-10.5°C 93% Calm Calm -- 29.94 in1013.9 mb - 0.00 in0.0 mm 0.00 in0.0 mm
08:20 AM 14.4°F-9.8°C 12.7°F-10.7°C 93% Calm Calm -- 29.93 in1013.5 mb - 0.00 in0.0 mm 0.00 in0.0 mm
08:30 AM 14.7°F-9.6°C 13.0°F-10.6°C 93% Calm Calm -- 29.93 in1013.5 mb - 0.00 in0.0 mm 0.00 in0.0 mm
08:40 AM 15.2°F-9.3°C 13.5°F-10.3°C 93% Calm Calm 1.2 mph1.9 kmh 29.93 in1013.5 mb - 0.00 in0.0 mm 0.00 in0.0 mm
08:50 AM 16.0°F-8.9°C 14.4°F-9.8°C 93% Calm Calm -- 29.93 in1013.5 mb - 0.00 in0.0 mm 0.00 in0.0 mm
09:00 AM 17.4°F-8.1°C 15.7°F-9.1°C 93% Calm Calm -- 29.92 in1013.2 mb - 0.00 in0.0 mm 0.00 in0.0 mm
09:10 AM 18.7°F-7.4°C 17.0°F-8.3°C 93% Calm Calm -- 29.91 in1012.9 mb - 0.00 in0.0 mm 0.00 in0.0 mm
09:20 AM 20.8°F-6.2°C 19.1°F-7.2°C 93% Calm Calm 2.3 mph3.7 kmh 29.91 in1012.9 mb - 0.00 in0.0 mm 0.00 in0.0 mm
09:30 AM 22.7°F-5.2°C 20.9°F-6.2°C 93% 1.2 mph S1.9 kmh S 2.3 mph3.7 kmh 29.91 in1012.9 mb - 0.00 in0.0 mm 0.00 in0.0 mm
09:40 AM 24.0°F-4.4°C 22.2°F-5.4°C 93% 1.2 mph SE1.9 kmh SE 2.3 mph3.7 kmh 29.91 in1012.9 mb - 0.00 in0.0 mm 0.00 in0.0 mm
09:50 AM 25.8°F-3.4°C 24.3°F-4.3°C 94% 3.5 mph NW5.6 kmh NW 2.3 mph3.7 kmh 29.91 in1012.9 mb - 0.00 in0.0 mm 0.00 in0.0 mm
10:00 AM 27.0°F-2.8°C 25.3°F-3.7°C 93% 3.5 mph SW5.6 kmh SW 3.5 mph5.6 kmh 29.91 in1012.9 mb - 0.00 in0.0 mm 0.00 in0.0 mm
10:10 AM 27.9°F-2.3°C 25.9°F-3.4°C 92% 2.3 mph NW3.7 kmh NW 2.3 mph3.7 kmh 29.91 in1012.9 mb - 0.00 in0.0 mm 0.00 in0.0 mm
10:20 AM 28.3°F-2.1°C 25.7°F-3.5°C 90% 2.3 mph S3.7 kmh S 2.3 mph3.7 kmh 29.92 in1013.2 mb - 0.00 in0.0 mm 0.00 in0.0 mm
10:30 AM 28.9°F-1.7°C 25.2°F-3.8°C 86% 3.5 mph SSE5.6 kmh SSE 8.1 mph13.0 kmh 29.92 in1013.2 mb - 0.00 in0.0 mm 0.00 in0.0 mm
10:40 AM 29.6°F-1.3°C 25.4°F-3.7°C 84% 3.5 mph SE5.6 kmh SE 2.3 mph3.7 kmh 29.92 in1013.2 mb - 0.00 in0.0 mm 0.00 in0.0 mm
10:50 AM 30.2°F-1.0°C 25.7°F-3.5°C 83% 1.2 mph WSW1.9 kmh WSW 5.8 mph9.3 kmh 29.92 in1013.2 mb - 0.00 in0.0 mm 0.00 in0.0 mm
11:00 AM 31.4°F-0.3°C 26.5°F-3.1°C 82% 3.5 mph NE5.6 kmh NE 10.4 mph16.7 kmh 29.92 in1013.2 mb - 0.00 in0.0 mm 0.00 in0.0 mm
11:10 AM 32.3°F0.2°C 27.4°F-2.6°C 82% 4.6 mph W7.4 kmh W 9.2 mph14.8 kmh 29.93 in1013.5 mb - 0.00 in0.0 mm 0.00 in0.0 mm
11:20 AM 33.0°F0.6°C 28.2°F-2.1°C 82% 4.6 mph W7.4 kmh W 10.4 mph16.7 kmh 29.94 in1013.9 mb - 0.00 in0.0 mm 0.00 in0.0 mm
11:30 AM 32.9°F0.5°C 26.2°F-3.2°C 76% 6.9 mph WSW11.1 kmh WSW 6.9 mph11.1 kmh 29.94 in1013.9 mb - 0.00 in0.0 mm 0.00 in0.0 mm
11:40 AM 32.9°F0.5°C 26.2°F-3.2°C 76% 3.5 mph WSW5.6 kmh WSW 3.5 mph5.6 kmh 29.94 in1013.9 mb - 0.00 in0.0 mm 0.00 in0.0 mm
11:50 AM 33.0°F0.6°C 25.9°F-3.4°C 75% 3.5 mph SSW5.6 kmh SSW 5.8 mph9.3 kmh 29.94 in1013.9 mb - 0.00 in0.0 mm 0.00 in0.0 mm
12:00 PM 33.3°F0.7°C 25.9°F-3.4°C 74% 5.8 mph NW9.3 kmh NW 8.1 mph13.0 kmh 29.94 in1013.9 mb - 0.00 in0.0 mm 0.00 in0.0 mm
12:10 PM 33.5°F0.8°C 25.8°F-3.4°C 73% 5.8 mph SW9.3 kmh SW 9.2 mph14.8 kmh 29.93 in1013.5 mb - 0.00 in0.0 mm 0.00 in0.0 mm
12:20 PM 33.9°F1.1°C 25.5°F-3.6°C 71% 3.5 mph WSW5.6 kmh WSW 9.2 mph14.8 kmh 29.93 in1013.5 mb - 0.00 in0.0 mm 0.00 in0.0 mm
12:30 PM 34.6°F1.4°C 26.2°F-3.2°C 71% 2.3 mph WSW3.7 kmh WSW 5.8 mph9.3 kmh 29.92 in1013.2 mb - 0.00 in0.0 mm 0.00 in0.0 mm
12:40 PM 35.7°F2.1°C 26.2°F-3.2°C 68% 4.6 mph WSW7.4 kmh WSW 6.9 mph11.1 kmh 29.92 in1013.2 mb - 0.00 in0.0 mm 0.00 in0.0 mm
12:50 PM 35.9°F2.2°C 26.0°F-3.3°C 67% 6.9 mph W11.1 kmh W 11.5 mph18.5 kmh 29.92 in1013.2 mb - 0.00 in0.0 mm 0.00 in0.0 mm
01:00 PM 35.6°F2.0°C 25.7°F-3.5°C 67% 8.1 mph W13.0 kmh W 11.5 mph18.5 kmh 29.92 in1013.2 mb - 0.00 in0.0 mm 0.00 in0.0 mm
01:10 PM 35.4°F1.9°C 25.6°F-3.6°C 67% 4.6 mph W7.4 kmh W 3.5 mph5.6 kmh 29.91 in1012.9 mb - 0.00 in0.0 mm 0.00 in0.0 mm
01:20 PM 35.8°F2.1°C 25.5°F-3.6°C 66% 5.8 mph WNW9.3 kmh WNW 11.5 mph18.5 kmh 29.90 in1012.5 mb - 0.00 in0.0 mm 0.00 in0.0 mm
01:30 PM 36.1°F2.3°C 25.5°F-3.6°C 65% 3.5 mph WNW5.6 kmh WNW 8.1 mph13.0 kmh 29.91 in1012.9 mb - 0.00 in0.0 mm 0.00 in0.0 mm
01:40 PM 36.2°F2.3°C 25.5°F-3.6°C 65% 4.6 mph NW7.4 kmh NW 8.1 mph13.0 kmh 29.90 in1012.5 mb - 0.00 in0.0 mm 0.00 in0.0 mm
01:50 PM 36.2°F2.3°C 25.6°F-3.6°C 65% 2.3 mph WSW3.7 kmh WSW 10.4 mph16.7 kmh 29.90 in1012.5 mb - 0.00 in0.0 mm 0.00 in0.0 mm
02:00 PM 35.9°F2.2°C 25.3°F-3.7°C 65% 3.5 mph SW5.6 kmh SW 8.1 mph13.0 kmh 29.90 in1012.5 mb - 0.00 in0.0 mm 0.00 in0.0 mm
02:10 PM 35.8°F2.1°C 25.5°F-3.6°C 66% 4.6 mph WSW7.4 kmh WSW 9.2 mph14.8 kmh 29.90 in1012.5 mb - 0.00 in0.0 mm 0.00 in0.0 mm
02:20 PM 35.9°F2.2°C 25.3°F-3.7°C 65% 8.1 mph WSW13.0 kmh WSW 11.5 mph18.5 kmh 29.90 in1012.5 mb - 0.00 in0.0 mm 0.00 in0.0 mm
02:30 PM 35.9°F2.2°C 25.3°F-3.7°C 65% 3.5 mph W5.6 kmh W 5.8 mph9.3 kmh 29.90 in1012.5 mb - 0.00 in0.0 mm 0.00 in0.0 mm
02:40 PM 35.9°F2.2°C 25.2°F-3.8°C 65% 8.1 mph W13.0 kmh W 11.5 mph18.5 kmh 29.91 in1012.9 mb - 0.00 in0.0 mm 0.00 in0.0 mm
02:50 PM 35.8°F2.1°C 25.6°F-3.6°C 66% 3.5 mph WNW5.6 kmh WNW 8.1 mph13.0 kmh 29.91 in1012.9 mb - 0.00 in0.0 mm 0.00 in0.0 mm
03:00 PM 35.7°F2.1°C 25.1°F-3.8°C 65% 6.9 mph WSW11.1 kmh WSW 15.0 mph24.1 kmh 29.91 in1012.9 mb - 0.00 in0.0 mm 0.00 in0.0 mm
03:10 PM 35.6°F2.0°C 25.0°F-3.9°C 65% 4.6 mph WSW7.4 kmh WSW 8.1 mph13.0 kmh 29.91 in1012.9 mb - 0.00 in0.0 mm 0.00 in0.0 mm
03:20 PM 35.6°F2.0°C 25.0°F-3.9°C 65% 4.6 mph WSW7.4 kmh WSW 8.1 mph13.0 kmh 29.91 in1012.9 mb - 0.00 in0.0 mm 0.00 in0.0 mm
03:30 PM 35.8°F2.1°C 25.2°F-3.8°C 65% 4.6 mph W7.4 kmh W 8.1 mph13.0 kmh 29.92 in1013.2 mb - 0.00 in0.0 mm 0.00 in0.0 mm
03:40 PM 35.9°F2.2°C 25.3°F-3.7°C 65% 2.3 mph W3.7 kmh W 6.9 mph11.1 kmh 29.92 in1013.2 mb - 0.00 in0.0 mm 0.00 in0.0 mm
03:50 PM 35.8°F2.1°C 25.2°F-3.8°C 65% 5.8 mph W9.3 kmh W 5.8 mph9.3 kmh 29.92 in1013.2 mb - 0.00 in0.0 mm 0.00 in0.0 mm
04:00 PM 35.7°F2.1°C 25.1°F-3.8°C 65% 4.6 mph W7.4 kmh W 6.9 mph11.1 kmh 29.92 in1013.2 mb - 0.00 in0.0 mm 0.00 in0.0 mm
04:10 PM 35.7°F2.1°C 25.1°F-3.8°C 65% 4.6 mph W7.4 kmh W 9.2 mph14.8 kmh 29.92 in1013.2 mb - 0.00 in0.0 mm 0.00 in0.0 mm
04:20 PM 35.6°F2.0°C 25.0°F-3.9°C 65% 5.8 mph W9.3 kmh W 9.2 mph14.8 kmh 29.92 in1013.2 mb - 0.00 in0.0 mm 0.00 in0.0 mm
04:30 PM 35.5°F1.9°C 24.9°F-3.9°C 65% 2.3 mph WSW3.7 kmh WSW 2.3 mph3.7 kmh 29.92 in1013.2 mb - 0.00 in0.0 mm 0.00 in0.0 mm
04:40 PM 35.4°F1.9°C 24.8°F-4.0°C 65% 3.5 mph WSW5.6 kmh WSW 8.1 mph13.0 kmh 29.92 in1013.2 mb - 0.00 in0.0 mm 0.00 in0.0 mm
04:50 PM 35.3°F1.8°C 24.3°F-4.3°C 64% 6.9 mph W11.1 kmh W 8.1 mph13.0 kmh 29.92 in1013.2 mb - 0.00 in0.0 mm 0.00 in0.0 mm
05:00 PM 35.2°F1.8°C 24.3°F-4.3°C 64% 5.8 mph WSW9.3 kmh WSW 6.9 mph11.1 kmh 29.92 in1013.2 mb - 0.00 in0.0 mm 0.00 in0.0 mm
05:10 PM 35.1°F1.7°C 24.1°F-4.4°C 64% 4.6 mph WSW7.4 kmh WSW 8.1 mph13.0 kmh 29.92 in1013.2 mb - 0.00 in0.0 mm 0.00 in0.0 mm
05:20 PM 34.9°F1.6°C 24.3°F-4.3°C 65% 2.3 mph W3.7 kmh W 2.3 mph3.7 kmh 29.92 in1013.2 mb - 0.00 in0.0 mm 0.00 in0.0 mm
05:30 PM 34.3°F1.3°C 23.7°F-4.6°C 65% 4.6 mph WSW7.4 kmh WSW 6.9 mph11.1 kmh 29.92 in1013.2 mb - 0.00 in0.0 mm 0.00 in0.0 mm
05:40 PM 34.1°F1.2°C 23.9°F-4.5°C 66% 3.5 mph WSW5.6 kmh WSW 2.3 mph3.7 kmh 29.92 in1013.2 mb - 0.00 in0.0 mm 0.00 in0.0 mm
05:50 PM 33.7°F0.9°C 23.9°F-4.5°C 67% Calm Calm 2.3 mph3.7 kmh 29.92 in1013.2 mb - 0.00 in0.0 mm 0.00 in0.0 mm
06:00 PM 32.8°F0.4°C 23.4°F-4.8°C 68% 3.5 mph SW5.6 kmh SW 2.3 mph3.7 kmh 29.93 in1013.5 mb - 0.00 in0.0 mm 0.00 in0.0 mm
06:10 PM 33.7°F0.9°C 23.2°F-4.9°C 65% 5.8 mph WSW9.3 kmh WSW 5.8 mph9.3 kmh 29.93 in1013.5 mb - 0.00 in0.0 mm 0.00 in0.0 mm
06:20 PM 34.3°F1.3°C 23.4°F-4.8°C 64% 3.5 mph SW5.6 kmh SW 2.3 mph3.7 kmh 29.94 in1013.9 mb - 0.00 in0.0 mm 0.00 in0.0 mm
06:30 PM 34.6°F1.4°C 23.7°F-4.6°C 64% 2.3 mph SW3.7 kmh SW 2.3 mph3.7 kmh 29.94 in1013.9 mb - 0.00 in0.0 mm 0.00 in0.0 mm
06:40 PM 34.8°F1.6°C 23.9°F-4.5°C 64% 2.3 mph S3.7 kmh S 6.9 mph11.1 kmh 29.94 in1013.9 mb - 0.00 in0.0 mm 0.00 in0.0 mm
06:50 PM 35.0°F1.7°C 24.4°F-4.2°C 65% 2.3 mph S3.7 kmh S 3.5 mph5.6 kmh 29.95 in1014.2 mb - 0.00 in0.0 mm 0.00 in0.0 mm
07:00 PM 34.9°F1.6°C 23.6°F-4.7°C 63% 2.3 mph E3.7 kmh E 3.5 mph5.6 kmh 29.95 in1014.2 mb - 0.00 in0.0 mm 0.00 in0.0 mm
07:10 PM 34.8°F1.6°C 23.9°F-4.5°C 64% 2.3 mph SW3.7 kmh SW 2.3 mph3.7 kmh 29.96 in1014.6 mb - 0.00 in0.0 mm 0.00 in0.0 mm
07:20 PM 35.0°F1.7°C 24.0°F-4.4°C 64% 2.3 mph SE3.7 kmh SE 2.3 mph3.7 kmh 29.96 in1014.6 mb - 0.00 in0.0 mm 0.00 in0.0 mm
07:30 PM 35.0°F1.7°C 24.0°F-4.4°C 64% 1.2 mph S1.9 kmh S 1.2 mph1.9 kmh 29.97 in1014.9 mb - 0.00 in0.0 mm 0.00 in0.0 mm
07:40 PM 35.1°F1.7°C 23.8°F-4.6°C 63% 2.3 mph NW3.7 kmh NW 5.8 mph9.3 kmh 29.97 in1014.9 mb - 0.00 in0.0 mm 0.00 in0.0 mm
07:50 PM 35.3°F1.8°C 24.0°F-4.4°C 63% Calm Calm 2.3 mph3.7 kmh 29.97 in1014.9 mb - 0.00 in0.0 mm 0.00 in0.0 mm
08:00 PM 35.2°F1.8°C 23.9°F-4.5°C 63% 2.3 mph WNW3.7 kmh WNW 3.5 mph5.6 kmh 29.97 in1014.9 mb - 0.00 in0.0 mm 0.00 in0.0 mm
08:10 PM 35.2°F1.8°C 23.9°F-4.5°C 63% 2.3 mph W3.7 kmh W 5.8 mph9.3 kmh 29.97 in1014.9 mb - 0.00 in0.0 mm 0.00 in0.0 mm
08:20 PM 34.9°F1.6°C 24.3°F-4.3°C 65% 1.2 mph NW1.9 kmh NW 1.2 mph1.9 kmh 29.98 in1015.2 mb - 0.00 in0.0 mm 0.00 in0.0 mm
08:30 PM 34.9°F1.6°C 23.9°F-4.5°C 64% 3.5 mph NW5.6 kmh NW 2.3 mph3.7 kmh 29.98 in1015.2 mb - 0.00 in0.0 mm 0.00 in0.0 mm
08:40 PM 34.8°F1.6°C 24.2°F-4.3°C 65% 3.5 mph WSW5.6 kmh WSW 3.5 mph5.6 kmh 29.98 in1015.2 mb - 0.00 in0.0 mm 0.00 in0.0 mm
08:50 PM 34.7°F1.5°C 24.1°F-4.4°C 65% 1.2 mph S1.9 kmh S 3.5 mph5.6 kmh 29.99 in1015.6 mb - 0.00 in0.0 mm 0.00 in0.0 mm
09:00 PM 34.5°F1.4°C 23.9°F-4.5°C 65% 2.3 mph WNW3.7 kmh WNW 5.8 mph9.3 kmh 29.99 in1015.6 mb - 0.00 in0.0 mm 0.00 in0.0 mm
09:10 PM 34.3°F1.3°C 23.7°F-4.6°C 65% 2.3 mph SW3.7 kmh SW 2.3 mph3.7 kmh 29.99 in1015.6 mb - 0.00 in0.0 mm 0.00 in0.0 mm
09:20 PM 33.4°F0.8°C 23.6°F-4.7°C 67% 3.5 mph W5.6 kmh W 2.3 mph3.7 kmh 29.99 in1015.6 mb - 0.00 in0.0 mm 0.00 in0.0 mm
09:30 PM 33.1°F0.6°C 23.3°F-4.8°C 67% 3.5 mph W5.6 kmh W 3.5 mph5.6 kmh 30.00 in1015.9 mb - 0.00 in0.0 mm 0.00 in0.0 mm
09:40 PM 33.4°F0.8°C 22.9°F-5.1°C 65% 6.9 mph NW11.1 kmh NW 8.1 mph13.0 kmh 30.01 in1016.3 mb - 0.00 in0.0 mm 0.00 in0.0 mm
09:50 PM 33.8°F1.0°C 20.2°F-6.6°C 57% 9.2 mph W14.8 kmh W 11.5 mph18.5 kmh 30.00 in1015.9 mb - 0.00 in0.0 mm 0.00 in0.0 mm
10:00 PM 34.3°F1.3°C 20.2°F-6.6°C 56% 8.1 mph WNW13.0 kmh WNW 10.4 mph16.7 kmh 30.01 in1016.3 mb - 0.00 in0.0 mm 0.00 in0.0 mm
10:10 PM 33.9°F1.1°C 20.3°F-6.5°C 57% 6.9 mph W11.1 kmh W 5.8 mph9.3 kmh 30.02 in1016.6 mb - 0.00 in0.0 mm 0.00 in0.0 mm
10:20 PM 33.7°F0.9°C 20.5°F-6.4°C 58% 6.9 mph WSW11.1 kmh WSW 11.5 mph18.5 kmh 30.02 in1016.6 mb - 0.00 in0.0 mm 0.00 in0.0 mm
10:30 PM 33.1°F0.6°C 19.9°F-6.7°C 58% 4.6 mph W7.4 kmh W 10.4 mph16.7 kmh 30.03 in1016.9 mb - 0.00 in0.0 mm 0.00 in0.0 mm
10:40 PM 32.7°F0.4°C 19.9°F-6.7°C 59% 4.6 mph W7.4 kmh W 6.9 mph11.1 kmh 30.03 in1016.9 mb - 0.00 in0.0 mm 0.00 in0.0 mm
10:50 PM 32.2°F0.1°C 19.9°F-6.7°C 60% 6.9 mph NW11.1 kmh NW 21.9 mph35.2 kmh 30.05 in1017.6 mb - 0.00 in0.0 mm 0.00 in0.0 mm
11:00 PM 31.9°F-0.1°C 19.6°F-6.9°C 60% 4.6 mph WNW7.4 kmh WNW 5.8 mph9.3 kmh 30.05 in1017.6 mb - 0.00 in0.0 mm 0.00 in0.0 mm
11:10 PM 31.8°F-0.1°C 19.9°F-6.7°C 61% 3.5 mph WNW5.6 kmh WNW 5.8 mph9.3 kmh 30.05 in1017.6 mb - 0.00 in0.0 mm 0.00 in0.0 mm
11:20 PM 31.1°F-0.5°C 19.6°F-6.9°C 62% 3.5 mph W5.6 kmh W 5.8 mph9.3 kmh 30.06 in1017.9 mb - 0.00 in0.0 mm 0.00 in0.0 mm
11:30 PM 30.7°F-0.7°C 18.8°F-7.3°C 61% 1.2 mph SW1.9 kmh SW 2.3 mph3.7 kmh 30.07 in1018.3 mb - 0.00 in0.0 mm 0.00 in0.0 mm
11:40 PM 30.3°F-0.9°C 16.5°F-8.6°C 56% 4.6 mph WNW7.4 kmh WNW 5.8 mph9.3 kmh 30.07 in1018.3 mb - 0.00 in0.0 mm 0.00 in0.0 mm
11:50 PM 29.9°F-1.2°C 16.5°F-8.6°C 57% 3.5 mph WSW5.6 kmh WSW 5.8 mph9.3 kmh 30.07 in1018.3 mb - 0.00 in0.0 mm 0.00 in0.0 mm